sensor_id;sensor_type;location;lat;lon;timestamp;P1;durP1;ratioP1;P2;durP2;ratioP2
31808;SDS011;18379;48.208;-1.518;2022-12-05T00:01:40;91.60;;;54.93;;
31808;SDS011;18379;48.208;-1.518;2022-12-05T00:06:43;84.20;;;52.43;;
31808;SDS011;18379;48.208;-1.518;2022-12-05T00:11:44;83.40;;;51.10;;
31808;SDS011;18379;48.208;-1.518;2022-12-05T00:16:45;87.40;;;47.10;;
31808;SDS011;18379;48.208;-1.518;2022-12-05T00:21:45;87.00;;;47.10;;
31808;SDS011;18379;48.208;-1.518;2022-12-05T00:26:46;92.87;;;46.47;;
31808;SDS011;18379;48.208;-1.518;2022-12-05T00:31:47;78.00;;;45.20;;
31808;SDS011;18379;48.208;-1.518;2022-12-05T00:36:48;85.20;;;44.97;;
31808;SDS011;18379;48.208;-1.518;2022-12-05T00:41:49;77.63;;;45.43;;
31808;SDS011;18379;48.208;-1.518;2022-12-05T00:46:49;80.00;;;44.27;;
31808;SDS011;18379;48.208;-1.518;2022-12-05T00:51:50;71.60;;;42.13;;
31808;SDS011;18379;48.208;-1.518;2022-12-05T00:56:51;72.93;;;43.03;;
31808;SDS011;18379;48.208;-1.518;2022-12-05T01:01:55;71.57;;;41.93;;
31808;SDS011;18379;48.208;-1.518;2022-12-05T01:06:56;74.47;;;43.07;;
31808;SDS011;18379;48.208;-1.518;2022-12-05T01:11:58;73.30;;;43.33;;
31808;SDS011;18379;48.208;-1.518;2022-12-05T01:16:58;75.10;;;44.20;;
31808;SDS011;18379;48.208;-1.518;2022-12-05T01:21:59;77.90;;;47.07;;
31808;SDS011;18379;48.208;-1.518;2022-12-05T01:27:00;71.33;;;44.93;;
31808;SDS011;18379;48.208;-1.518;2022-12-05T01:32:01;75.77;;;43.27;;
31808;SDS011;18379;48.208;-1.518;2022-12-05T01:37:02;82.57;;;53.10;;
31808;SDS011;18379;48.208;-1.518;2022-12-05T01:42:03;76.83;;;45.40;;
31808;SDS011;18379;48.208;-1.518;2022-12-05T01:47:06;70.63;;;44.40;;
31808;SDS011;18379;48.208;-1.518;2022-12-05T01:52:17;66.33;;;41.37;;
31808;SDS011;18379;48.208;-1.518;2022-12-05T01:57:21;66.87;;;42.43;;
31808;SDS011;18379;48.208;-1.518;2022-12-05T02:02:23;72.43;;;42.97;;
31808;SDS011;18379;48.208;-1.518;2022-12-05T02:07:28;71.63;;;43.33;;
31808;SDS011;18379;48.208;-1.518;2022-12-05T02:12:31;85.20;;;55.83;;
31808;SDS011;18379;48.208;-1.518;2022-12-05T02:23:21;76.20;;;47.77;;
31808;SDS011;18379;48.208;-1.518;2022-12-05T02:28:39;70.40;;;44.10;;
31808;SDS011;18379;48.208;-1.518;2022-12-05T02:34:11;78.20;;;45.87;;
31808;SDS011;18379;48.208;-1.518;2022-12-05T02:39:39;70.80;;;41.73;;
31808;SDS011;18379;48.208;-1.518;2022-12-05T02:44:54;65.73;;;40.90;;
31808;SDS011;18379;48.208;-1.518;2022-12-05T02:50:01;76.13;;;44.93;;
31808;SDS011;18379;48.208;-1.518;2022-12-05T02:55:03;86.83;;;49.00;;
31808;SDS011;18379;48.208;-1.518;2022-12-05T03:00:06;84.83;;;45.50;;
31808;SDS011;18379;48.208;-1.518;2022-12-05T03:10:40;78.63;;;44.20;;
31808;SDS011;18379;48.208;-1.518;2022-12-05T03:15:45;80.63;;;43.87;;
31808;SDS011;18379;48.208;-1.518;2022-12-05T03:21:04;81.77;;;43.43;;
31808;SDS011;18379;48.208;-1.518;2022-12-05T03:31:33;87.37;;;45.50;;
31808;SDS011;18379;48.208;-1.518;2022-12-05T03:36:41;79.10;;;44.57;;
31808;SDS011;18379;48.208;-1.518;2022-12-05T03:41:53;82.03;;;44.33;;
31808;SDS011;18379;48.208;-1.518;2022-12-05T03:47:15;112.83;;;54.23;;
31808;SDS011;18379;48.208;-1.518;2022-12-05T03:52:23;80.83;;;43.67;;
31808;SDS011;18379;48.208;-1.518;2022-12-05T03:57:36;84.80;;;47.53;;
31808;SDS011;18379;48.208;-1.518;2022-12-05T04:02:53;70.93;;;41.47;;
31808;SDS011;18379;48.208;-1.518;2022-12-05T04:08:04;77.17;;;45.47;;
31808;SDS011;18379;48.208;-1.518;2022-12-05T04:13:08;75.70;;;43.43;;
31808;SDS011;18379;48.208;-1.518;2022-12-05T04:18:17;66.00;;;40.93;;
31808;SDS011;18379;48.208;-1.518;2022-12-05T04:23:23;65.23;;;40.20;;
31808;SDS011;18379;48.208;-1.518;2022-12-05T04:28:31;66.87;;;41.43;;
31808;SDS011;18379;48.208;-1.518;2022-12-05T04:33:41;74.73;;;45.47;;
31808;SDS011;18379;48.208;-1.518;2022-12-05T04:43:49;69.60;;;46.00;;
31808;SDS011;18379;48.208;-1.518;2022-12-05T04:48:55;63.53;;;40.57;;
31808;SDS011;18379;48.208;-1.518;2022-12-05T04:54:01;67.73;;;42.93;;
31808;SDS011;18379;48.208;-1.518;2022-12-05T04:59:20;62.27;;;40.43;;
31808;SDS011;18379;48.208;-1.518;2022-12-05T05:04:25;64.47;;;40.43;;
31808;SDS011;18379;48.208;-1.518;2022-12-05T05:09:30;64.63;;;43.20;;
31808;SDS011;18379;48.208;-1.518;2022-12-05T05:14:30;74.17;;;46.17;;
31808;SDS011;18379;48.208;-1.518;2022-12-05T05:19:31;68.40;;;43.17;;
31808;SDS011;18379;48.208;-1.518;2022-12-05T05:24:32;76.90;;;44.87;;
31808;SDS011;18379;48.208;-1.518;2022-12-05T05:29:33;71.67;;;43.57;;
31808;SDS011;18379;48.208;-1.518;2022-12-05T05:34:33;94.03;;;55.20;;
31808;SDS011;18379;48.208;-1.518;2022-12-05T05:39:34;72.87;;;44.33;;
31808;SDS011;18379;48.208;-1.518;2022-12-05T05:44:35;82.37;;;46.73;;
31808;SDS011;18379;48.208;-1.518;2022-12-05T05:49:36;79.90;;;50.53;;
31808;SDS011;18379;48.208;-1.518;2022-12-05T05:54:37;79.70;;;45.60;;
31808;SDS011;18379;48.208;-1.518;2022-12-05T05:59:38;79.00;;;45.10;;
31808;SDS011;18379;48.208;-1.518;2022-12-05T06:04:39;76.00;;;44.60;;
31808;SDS011;18379;48.208;-1.518;2022-12-05T06:09:40;79.33;;;44.83;;
31808;SDS011;18379;48.208;-1.518;2022-12-05T06:14:40;77.10;;;43.00;;
31808;SDS011;18379;48.208;-1.518;2022-12-05T06:19:41;78.40;;;44.87;;
31808;SDS011;18379;48.208;-1.518;2022-12-05T06:24:42;82.73;;;52.20;;
31808;SDS011;18379;48.208;-1.518;2022-12-05T06:29:43;84.07;;;46.17;;
31808;SDS011;18379;48.208;-1.518;2022-12-05T06:34:43;79.27;;;45.30;;
31808;SDS011;18379;48.208;-1.518;2022-12-05T06:39:44;75.30;;;44.27;;
31808;SDS011;18379;48.208;-1.518;2022-12-05T06:44:45;89.87;;;51.37;;
31808;SDS011;18379;48.208;-1.518;2022-12-05T06:49:46;77.47;;;43.27;;
31808;SDS011;18379;48.208;-1.518;2022-12-05T06:54:48;88.17;;;48.57;;
31808;SDS011;18379;48.208;-1.518;2022-12-05T06:59:48;78.40;;;42.73;;
31808;SDS011;18379;48.208;-1.518;2022-12-05T07:04:52;77.73;;;45.03;;
31808;SDS011;18379;48.208;-1.518;2022-12-05T07:09:54;80.30;;;43.97;;
31808;SDS011;18379;48.208;-1.518;2022-12-05T07:14:58;79.00;;;43.73;;
31808;SDS011;18379;48.208;-1.518;2022-12-05T07:19:59;75.00;;;46.27;;
31808;SDS011;18379;48.208;-1.518;2022-12-05T07:25:00;82.07;;;45.00;;
31808;SDS011;18379;48.208;-1.518;2022-12-05T07:30:02;79.60;;;46.47;;
31808;SDS011;18379;48.208;-1.518;2022-12-05T07:35:04;97.20;;;49.20;;
31808;SDS011;18379;48.208;-1.518;2022-12-05T07:40:05;79.30;;;45.13;;
31808;SDS011;18379;48.208;-1.518;2022-12-05T07:45:06;83.13;;;47.70;;
31808;SDS011;18379;48.208;-1.518;2022-12-05T07:50:08;83.50;;;46.97;;
31808;SDS011;18379;48.208;-1.518;2022-12-05T07:55:14;84.67;;;46.33;;
31808;SDS011;18379;48.208;-1.518;2022-12-05T08:00:15;81.70;;;45.70;;
31808;SDS011;18379;48.208;-1.518;2022-12-05T08:05:16;86.47;;;48.43;;
31808;SDS011;18379;48.208;-1.518;2022-12-05T08:10:17;90.10;;;47.50;;
31808;SDS011;18379;48.208;-1.518;2022-12-05T08:15:18;86.37;;;47.10;;
31808;SDS011;18379;48.208;-1.518;2022-12-05T08:20:19;87.00;;;53.43;;
31808;SDS011;18379;48.208;-1.518;2022-12-05T08:25:20;79.37;;;48.27;;
31808;SDS011;18379;48.208;-1.518;2022-12-05T08:30:21;86.10;;;47.63;;
31808;SDS011;18379;48.208;-1.518;2022-12-05T08:35:22;80.00;;;46.73;;
31808;SDS011;18379;48.208;-1.518;2022-12-05T08:40:22;80.57;;;46.57;;
31808;SDS011;18379;48.208;-1.518;2022-12-05T08:45:23;82.50;;;47.10;;
31808;SDS011;18379;48.208;-1.518;2022-12-05T08:50:25;86.13;;;47.63;;
31808;SDS011;18379;48.208;-1.518;2022-12-05T08:55:26;83.60;;;48.07;;
31808;SDS011;18379;48.208;-1.518;2022-12-05T09:00:27;89.60;;;49.33;;
31808;SDS011;18379;48.208;-1.518;2022-12-05T09:05:28;84.73;;;47.77;;
31808;SDS011;18379;48.208;-1.518;2022-12-05T09:10:28;84.97;;;47.87;;
31808;SDS011;18379;48.208;-1.518;2022-12-05T09:15:29;79.07;;;51.97;;
31808;SDS011;18379;48.208;-1.518;2022-12-05T09:20:30;84.83;;;47.93;;
31808;SDS011;18379;48.208;-1.518;2022-12-05T09:25:32;90.83;;;47.93;;
31808;SDS011;18379;48.208;-1.518;2022-12-05T09:30:35;83.53;;;46.03;;
31808;SDS011;18379;48.208;-1.518;2022-12-05T09:35:38;81.13;;;47.70;;
31808;SDS011;18379;48.208;-1.518;2022-12-05T09:40:40;83.53;;;47.83;;
31808;SDS011;18379;48.208;-1.518;2022-12-05T09:45:43;76.00;;;46.20;;
31808;SDS011;18379;48.208;-1.518;2022-12-05T09:50:56;81.37;;;47.10;;
31808;SDS011;18379;48.208;-1.518;2022-12-05T09:56:08;78.87;;;46.23;;
31808;SDS011;18379;48.208;-1.518;2022-12-05T10:01:35;81.60;;;48.47;;
31808;SDS011;18379;48.208;-1.518;2022-12-05T10:17:24;77.00;;;47.37;;
31808;SDS011;18379;48.208;-1.518;2022-12-05T10:22:29;85.27;;;48.03;;
31808;SDS011;18379;48.208;-1.518;2022-12-05T10:27:45;77.53;;;46.30;;
31808;SDS011;18379;48.208;-1.518;2022-12-05T10:33:01;72.60;;;45.73;;
31808;SDS011;18379;48.208;-1.518;2022-12-05T10:38:10;77.57;;;46.37;;
31808;SDS011;18379;48.208;-1.518;2022-12-05T10:43:22;75.77;;;47.77;;
31808;SDS011;18379;48.208;-1.518;2022-12-05T10:48:25;80.07;;;48.13;;
31808;SDS011;18379;48.208;-1.518;2022-12-05T10:53:47;73.87;;;46.97;;
31808;SDS011;18379;48.208;-1.518;2022-12-05T10:58:53;104.57;;;61.83;;
31808;SDS011;18379;48.208;-1.518;2022-12-05T11:09:53;66.07;;;43.13;;
31808;SDS011;18379;48.208;-1.518;2022-12-05T11:14:58;74.00;;;46.53;;
31808;SDS011;18379;48.208;-1.518;2022-12-05T11:19:59;61.77;;;43.63;;
31808;SDS011;18379;48.208;-1.518;2022-12-05T11:25:00;73.27;;;46.73;;
31808;SDS011;18379;48.208;-1.518;2022-12-05T11:30:27;54.97;;;41.17;;
31808;SDS011;18379;48.208;-1.518;2022-12-05T11:35:28;51.37;;;41.20;;
31808;SDS011;18379;48.208;-1.518;2022-12-05T11:40:32;44.57;;;39.60;;
31808;SDS011;18379;48.208;-1.518;2022-12-05T11:51:08;42.63;;;36.47;;
31808;SDS011;18379;48.208;-1.518;2022-12-05T12:22:47;67.83;;;44.27;;
31808;SDS011;18379;48.208;-1.518;2022-12-05T12:28:51;64.07;;;44.30;;
31808;SDS011;18379;48.208;-1.518;2022-12-05T12:45:07;59.17;;;41.23;;
31808;SDS011;18379;48.208;-1.518;2022-12-05T12:50:42;60.17;;;42.53;;
31808;SDS011;18379;48.208;-1.518;2022-12-05T13:06:33;62.67;;;42.20;;
31808;SDS011;18379;48.208;-1.518;2022-12-05T13:11:40;52.40;;;41.63;;
31808;SDS011;18379;48.208;-1.518;2022-12-05T13:16:46;53.97;;;41.23;;
31808;SDS011;18379;48.208;-1.518;2022-12-05T13:21:49;57.73;;;44.20;;
31808;SDS011;18379;48.208;-1.518;2022-12-05T13:26:51;57.57;;;45.30;;
31808;SDS011;18379;48.208;-1.518;2022-12-05T13:31:52;53.20;;;42.47;;
31808;SDS011;18379;48.208;-1.518;2022-12-05T13:36:53;58.60;;;43.53;;
31808;SDS011;18379;48.208;-1.518;2022-12-05T13:42:22;56.93;;;42.40;;
31808;SDS011;18379;48.208;-1.518;2022-12-05T13:47:32;56.17;;;43.53;;
31808;SDS011;18379;48.208;-1.518;2022-12-05T13:52:53;56.37;;;44.60;;
31808;SDS011;18379;48.208;-1.518;2022-12-05T14:13:38;55.67;;;42.73;;
31808;SDS011;18379;48.208;-1.518;2022-12-05T14:30:16;56.50;;;44.77;;
31808;SDS011;18379;48.208;-1.518;2022-12-05T14:35:26;48.57;;;40.87;;
31808;SDS011;18379;48.208;-1.518;2022-12-05T14:45:39;59.10;;;43.17;;
31808;SDS011;18379;48.208;-1.518;2022-12-05T14:50:53;60.50;;;48.57;;
31808;SDS011;18379;48.208;-1.518;2022-12-05T14:55:56;56.33;;;44.57;;
31808;SDS011;18379;48.208;-1.518;2022-12-05T15:01:08;54.13;;;42.47;;
31808;SDS011;18379;48.208;-1.518;2022-12-05T15:06:14;55.80;;;43.47;;
31808;SDS011;18379;48.208;-1.518;2022-12-05T15:11:17;58.70;;;44.47;;
31808;SDS011;18379;48.208;-1.518;2022-12-05T15:16:29;70.57;;;47.63;;
31808;SDS011;18379;48.208;-1.518;2022-12-05T15:21:46;60.40;;;45.03;;
31808;SDS011;18379;48.208;-1.518;2022-12-05T15:26:56;63.30;;;48.70;;
31808;SDS011;18379;48.208;-1.518;2022-12-05T15:42:40;67.00;;;51.53;;
31808;SDS011;18379;48.208;-1.518;2022-12-05T15:47:41;60.43;;;48.40;;
31808;SDS011;18379;48.208;-1.518;2022-12-05T15:52:55;60.67;;;50.67;;
31808;SDS011;18379;48.208;-1.518;2022-12-05T15:58:02;88.23;;;59.03;;
31808;SDS011;18379;48.208;-1.518;2022-12-05T16:03:16;63.17;;;43.47;;
31808;SDS011;18379;48.208;-1.518;2022-12-05T16:08:23;55.77;;;44.67;;
31808;SDS011;18379;48.208;-1.518;2022-12-05T16:13:29;48.57;;;43.20;;
31808;SDS011;18379;48.208;-1.518;2022-12-05T16:18:30;56.60;;;49.17;;
31808;SDS011;18379;48.208;-1.518;2022-12-05T16:23:32;47.63;;;42.20;;
31808;SDS011;18379;48.208;-1.518;2022-12-05T16:28:36;43.53;;;38.80;;
31808;SDS011;18379;48.208;-1.518;2022-12-05T16:33:38;44.00;;;39.17;;
31808;SDS011;18379;48.208;-1.518;2022-12-05T16:38:39;46.57;;;40.87;;
31808;SDS011;18379;48.208;-1.518;2022-12-05T16:43:43;43.33;;;38.93;;
31808;SDS011;18379;48.208;-1.518;2022-12-05T16:49:11;49.57;;;43.07;;
31808;SDS011;18379;48.208;-1.518;2022-12-05T16:54:15;54.00;;;47.37;;
31808;SDS011;18379;48.208;-1.518;2022-12-05T16:59:21;46.57;;;41.53;;
31808;SDS011;18379;48.208;-1.518;2022-12-05T17:04:31;53.97;;;44.83;;
31808;SDS011;18379;48.208;-1.518;2022-12-05T17:09:32;61.93;;;51.93;;
31808;SDS011;18379;48.208;-1.518;2022-12-05T17:14:33;53.00;;;44.60;;
31808;SDS011;18379;48.208;-1.518;2022-12-05T17:19:34;60.13;;;49.37;;
31808;SDS011;18379;48.208;-1.518;2022-12-05T17:24:35;59.23;;;50.60;;
31808;SDS011;18379;48.208;-1.518;2022-12-05T17:29:36;73.47;;;59.23;;
31808;SDS011;18379;48.208;-1.518;2022-12-05T17:34:38;76.00;;;59.43;;
31808;SDS011;18379;48.208;-1.518;2022-12-05T17:39:39;57.23;;;45.03;;
31808;SDS011;18379;48.208;-1.518;2022-12-05T17:44:40;53.90;;;42.70;;
31808;SDS011;18379;48.208;-1.518;2022-12-05T17:49:41;49.63;;;43.07;;
31808;SDS011;18379;48.208;-1.518;2022-12-05T17:54:42;48.37;;;42.37;;
31808;SDS011;18379;48.208;-1.518;2022-12-05T17:59:43;54.47;;;43.37;;
31808;SDS011;18379;48.208;-1.518;2022-12-05T18:04:44;71.87;;;48.37;;
31808;SDS011;18379;48.208;-1.518;2022-12-05T18:09:46;64.87;;;48.00;;
31808;SDS011;18379;48.208;-1.518;2022-12-05T18:14:50;51.47;;;43.80;;
31808;SDS011;18379;48.208;-1.518;2022-12-05T18:19:52;52.27;;;43.67;;
31808;SDS011;18379;48.208;-1.518;2022-12-05T18:24:55;53.47;;;43.90;;
31808;SDS011;18379;48.208;-1.518;2022-12-05T18:29:57;53.77;;;45.07;;
31808;SDS011;18379;48.208;-1.518;2022-12-05T18:34:57;76.50;;;55.80;;
31808;SDS011;18379;48.208;-1.518;2022-12-05T18:40:00;56.83;;;46.43;;
31808;SDS011;18379;48.208;-1.518;2022-12-05T18:45:01;58.93;;;51.07;;
31808;SDS011;18379;48.208;-1.518;2022-12-05T18:50:03;58.27;;;50.40;;
31808;SDS011;18379;48.208;-1.518;2022-12-05T18:55:04;53.53;;;46.33;;
31808;SDS011;18379;48.208;-1.518;2022-12-05T19:00:05;54.77;;;46.47;;
31808;SDS011;18379;48.208;-1.518;2022-12-05T19:05:07;45.60;;;40.83;;
31808;SDS011;18379;48.208;-1.518;2022-12-05T19:10:08;48.30;;;41.63;;
31808;SDS011;18379;48.208;-1.518;2022-12-05T19:15:09;43.60;;;38.93;;
31808;SDS011;18379;48.208;-1.518;2022-12-05T19:20:10;44.57;;;39.47;;
31808;SDS011;18379;48.208;-1.518;2022-12-05T19:25:12;44.27;;;38.97;;
31808;SDS011;18379;48.208;-1.518;2022-12-05T19:30:14;45.00;;;38.83;;
31808;SDS011;18379;48.208;-1.518;2022-12-05T19:35:15;43.37;;;38.77;;
31808;SDS011;18379;48.208;-1.518;2022-12-05T19:40:16;43.53;;;38.83;;
31808;SDS011;18379;48.208;-1.518;2022-12-05T19:45:17;44.00;;;39.33;;
31808;SDS011;18379;48.208;-1.518;2022-12-05T19:50:18;44.37;;;39.67;;
31808;SDS011;18379;48.208;-1.518;2022-12-05T19:55:18;48.17;;;43.07;;
31808;SDS011;18379;48.208;-1.518;2022-12-05T20:00:19;63.20;;;49.23;;
31808;SDS011;18379;48.208;-1.518;2022-12-05T20:05:20;96.07;;;65.67;;
31808;SDS011;18379;48.208;-1.518;2022-12-05T20:10:21;81.53;;;58.93;;
31808;SDS011;18379;48.208;-1.518;2022-12-05T20:15:22;47.37;;;42.13;;
31808;SDS011;18379;48.208;-1.518;2022-12-05T20:20:22;54.77;;;48.73;;
31808;SDS011;18379;48.208;-1.518;2022-12-05T20:25:23;49.70;;;44.17;;
31808;SDS011;18379;48.208;-1.518;2022-12-05T20:30:24;45.33;;;40.70;;
31808;SDS011;18379;48.208;-1.518;2022-12-05T20:35:26;141.97;;;88.90;;
31808;SDS011;18379;48.208;-1.518;2022-12-05T20:40:28;142.97;;;85.77;;
31808;SDS011;18379;48.208;-1.518;2022-12-05T20:45:29;55.73;;;48.90;;
31808;SDS011;18379;48.208;-1.518;2022-12-05T20:50:32;141.13;;;97.47;;
31808;SDS011;18379;48.208;-1.518;2022-12-05T20:55:33;50.53;;;44.60;;
31808;SDS011;18379;48.208;-1.518;2022-12-05T21:00:35;57.20;;;46.70;;
31808;SDS011;18379;48.208;-1.518;2022-12-05T21:05:36;84.60;;;56.60;;
31808;SDS011;18379;48.208;-1.518;2022-12-05T21:10:42;113.50;;;80.90;;
31808;SDS011;18379;48.208;-1.518;2022-12-05T21:15:53;68.60;;;54.87;;
31808;SDS011;18379;48.208;-1.518;2022-12-05T21:20:58;50.93;;;43.80;;
31808;SDS011;18379;48.208;-1.518;2022-12-05T21:26:07;46.27;;;41.10;;
31808;SDS011;18379;48.208;-1.518;2022-12-05T21:31:16;44.37;;;39.63;;
31808;SDS011;18379;48.208;-1.518;2022-12-05T21:36:19;47.17;;;42.10;;
31808;SDS011;18379;48.208;-1.518;2022-12-05T21:41:24;51.50;;;42.60;;
31808;SDS011;18379;48.208;-1.518;2022-12-05T21:46:25;52.70;;;41.53;;
31808;SDS011;18379;48.208;-1.518;2022-12-05T21:51:30;48.27;;;41.80;;
31808;SDS011;18379;48.208;-1.518;2022-12-05T21:56:32;49.83;;;42.00;;
31808;SDS011;18379;48.208;-1.518;2022-12-05T22:01:33;44.47;;;39.67;;
31808;SDS011;18379;48.208;-1.518;2022-12-05T22:06:34;46.67;;;41.57;;
31808;SDS011;18379;48.208;-1.518;2022-12-05T22:11:34;59.50;;;43.80;;
31808;SDS011;18379;48.208;-1.518;2022-12-05T22:16:35;62.97;;;46.90;;
31808;SDS011;18379;48.208;-1.518;2022-12-05T22:21:36;64.13;;;46.83;;
31808;SDS011;18379;48.208;-1.518;2022-12-05T22:26:37;57.17;;;42.63;;
31808;SDS011;18379;48.208;-1.518;2022-12-05T22:31:37;46.93;;;39.83;;
31808;SDS011;18379;48.208;-1.518;2022-12-05T22:36:38;44.20;;;37.63;;
31808;SDS011;18379;48.208;-1.518;2022-12-05T22:41:39;43.63;;;37.53;;
31808;SDS011;18379;48.208;-1.518;2022-12-05T22:46:40;40.90;;;36.57;;
31808;SDS011;18379;48.208;-1.518;2022-12-05T22:51:40;48.43;;;39.33;;
31808;SDS011;18379;48.208;-1.518;2022-12-05T22:56:41;55.30;;;42.47;;
31808;SDS011;18379;48.208;-1.518;2022-12-05T23:01:42;43.57;;;38.40;;
31808;SDS011;18379;48.208;-1.518;2022-12-05T23:06:43;42.40;;;37.60;;
31808;SDS011;18379;48.208;-1.518;2022-12-05T23:11:44;41.33;;;36.43;;
31808;SDS011;18379;48.208;-1.518;2022-12-05T23:16:45;48.50;;;40.27;;
31808;SDS011;18379;48.208;-1.518;2022-12-05T23:21:46;52.43;;;41.07;;
31808;SDS011;18379;48.208;-1.518;2022-12-05T23:26:46;53.40;;;40.40;;
31808;SDS011;18379;48.208;-1.518;2022-12-05T23:31:47;49.83;;;39.43;;
31808;SDS011;18379;48.208;-1.518;2022-12-05T23:36:48;43.20;;;38.53;;
31808;SDS011;18379;48.208;-1.518;2022-12-05T23:41:49;56.43;;;41.83;;
31808;SDS011;18379;48.208;-1.518;2022-12-05T23:46:51;51.53;;;40.47;;
31808;SDS011;18379;48.208;-1.518;2022-12-05T23:51:52;47.03;;;39.53;;
31808;SDS011;18379;48.208;-1.518;2022-12-05T23:56:52;47.83;;;38.87;;
